Aviation Digital Data Service (ADDS)

Output produced by METARs form (2010 UTC 20 August 2019)
found at http://www.aviationweather.gov/metar/data/
 
METAR text: LDZA 202000Z 00000KT CAVOK 25/21 Q1017 NOSIG
Conditions at: LDZA (ZAGREB/PLESO , HR) observed 2000 UTC 20 August 2019
Temperature: 25.0°C (77°F)
Dewpoint: 21.0°C (70°F) [RH = 79%]
Pressure (altimeter): 30.03 inches Hg (1017.0 mb)
Winds: calm
Visibility: 6 or more miles (10+ km)
Ceiling: ceiling and visibility are OK
Clouds: unknown
Weather: no significant weather observed at this time

METAR text: LDZA 201930Z 23002KT CAVOK 25/21 Q1017 NOSIG
Conditions at: LDZA (ZAGREB/PLESO , HR) observed 1930 UTC 20 August 2019
Temperature: 25.0°C (77°F)
Dewpoint: 21.0°C (70°F) [RH = 79%]
Pressure (altimeter): 30.03 inches Hg (1017.0 mb)
Winds: from the SW (230 degrees) at 2 MPH (2 knots; 1.0 m/s)
Visibility: 6 or more miles (10+ km)
Ceiling: ceiling and visibility are OK
Clouds: unknown
Weather: no significant weather observed at this time

METAR text: LDZA 201900Z 23003KT CAVOK 27/20 Q1017 NOSIG
Conditions at: LDZA (ZAGREB/PLESO , HR) observed 1900 UTC 20 August 2019
Temperature: 27.0°C (81°F)
Dewpoint: 20.0°C (68°F) [RH = 66%]
Pressure (altimeter): 30.03 inches Hg (1017.0 mb)
Winds: from the SW (230 degrees) at 3 MPH (3 knots; 1.5 m/s)
Visibility: 6 or more miles (10+ km)
Ceiling: ceiling and visibility are OK
Clouds: unknown
Weather: no significant weather observed at this time

METAR text: LDZA 201830Z 00000KT CAVOK 28/20 Q1017 NOSIG
Conditions at: LDZA (ZAGREB/PLESO , HR) observed 1830 UTC 20 August 2019
Temperature: 28.0°C (82°F)
Dewpoint: 20.0°C (68°F) [RH = 62%]
Pressure (altimeter): 30.03 inches Hg (1017.0 mb)
Winds: calm
Visibility: 6 or more miles (10+ km)
Ceiling: ceiling and visibility are OK
Clouds: unknown
Weather: no significant weather observed at this time

METAR text: LDZA 201800Z 08001KT CAVOK 29/20 Q1017 NOSIG
Conditions at: LDZA (ZAGREB/PLESO , HR) observed 1800 UTC 20 August 2019
Temperature: 29.0°C (84°F)
Dewpoint: 20.0°C (68°F) [RH = 58%]
Pressure (altimeter): 30.03 inches Hg (1017.0 mb)
Winds: from the E (80 degrees) at 1 MPH (1 knots; 0.5 m/s)
Visibility: 6 or more miles (10+ km)
Ceiling: ceiling and visibility are OK
Clouds: unknown
Weather: no significant weather observed at this time

METAR text: LDZA 201730Z VRB02KT CAVOK 30/19 Q1017 NOSIG
Conditions at: LDZA (ZAGREB/PLESO , HR) observed 1730 UTC 20 August 2019
Temperature: 30.0°C (86°F)
Dewpoint: 19.0°C (66°F) [RH = 52%]
Pressure (altimeter): 30.03 inches Hg (1017.0 mb)
Winds: variable direction winds at 2 MPH (2 knots; 1.0 m/s)
Visibility: 6 or more miles (10+ km)
Ceiling: ceiling and visibility are OK
Clouds: unknown
Weather: no significant weather observed at this time

METAR text: LDZA 201700Z 08003KT 040V120 CAVOK 31/19 Q1017 NOSIG
Conditions at: LDZA (ZAGREB/PLESO , HR) observed 1700 UTC 20 August 2019
Temperature: 31.0°C (88°F)
Dewpoint: 19.0°C (66°F) [RH = 49%]
Pressure (altimeter): 30.03 inches Hg (1017.0 mb)
Winds: from the E (80 degrees) at 3 MPH (3 knots; 1.5 m/s)
Visibility: 6 or more miles (10+ km)
Ceiling: ceiling and visibility are OK
Clouds: unknown
Weather: no significant weather observed at this time

METAR text: LDZA 201630Z 07004KT 020V120 CAVOK 31/19 Q1017 NOSIG
Conditions at: LDZA (ZAGREB/PLESO , HR) observed 1630 UTC 20 August 2019
Temperature: 31.0°C (88°F)
Dewpoint: 19.0°C (66°F) [RH = 49%]
Pressure (altimeter): 30.03 inches Hg (1017.0 mb)
Winds: from the ENE (70 degrees) at 5 MPH (4 knots; 2.1 m/s)
Visibility: 6 or more miles (10+ km)
Ceiling: ceiling and visibility are OK
Clouds: unknown
Weather: no significant weather observed at this time

METAR text: LDZA 201600Z 08003KT 020V120 CAVOK 32/18 Q1017 NOSIG
Conditions at: LDZA (ZAGREB/PLESO , HR) observed 1600 UTC 20 August 2019
Temperature: 32.0°C (90°F)
Dewpoint: 18.0°C (64°F) [RH = 43%]
Pressure (altimeter): 30.03 inches Hg (1017.0 mb)
Winds: from the E (80 degrees) at 3 MPH (3 knots; 1.5 m/s)
Visibility: 6 or more miles (10+ km)
Ceiling: ceiling and visibility are OK
Clouds: unknown
Weather: no significant weather observed at this time

METAR text: LDZA 201530Z VRB04KT CAVOK 32/19 Q1017 NOSIG
Conditions at: LDZA (ZAGREB/PLESO , HR) observed 1530 UTC 20 August 2019
Temperature: 32.0°C (90°F)
Dewpoint: 19.0°C (66°F) [RH = 46%]
Pressure (altimeter): 30.03 inches Hg (1017.0 mb)
Winds: variable direction winds at 5 MPH (4 knots; 2.1 m/s)
Visibility: 6 or more miles (10+ km)
Ceiling: ceiling and visibility are OK
Clouds: unknown
Weather: no significant weather observed at this time

METAR text: LDZA 201500Z VRB02KT CAVOK 33/18 Q1017 NOSIG
Conditions at: LDZA (ZAGREB/PLESO , HR) observed 1500 UTC 20 August 2019
Temperature: 33.0°C (91°F)
Dewpoint: 18.0°C (64°F) [RH = 41%]
Pressure (altimeter): 30.03 inches Hg (1017.0 mb)
Winds: variable direction winds at 2 MPH (2 knots; 1.0 m/s)
Visibility: 6 or more miles (10+ km)
Ceiling: ceiling and visibility are OK
Clouds: unknown
Weather: no significant weather observed at this time

METAR text: LDZA 201430Z VRB01KT CAVOK 33/18 Q1017 NOSIG
Conditions at: LDZA (ZAGREB/PLESO , HR) observed 1430 UTC 20 August 2019
Temperature: 33.0°C (91°F)
Dewpoint: 18.0°C (64°F) [RH = 41%]
Pressure (altimeter): 30.03 inches Hg (1017.0 mb)
Winds: variable direction winds at 1 MPH (1 knots; 0.5 m/s)
Visibility: 6 or more miles (10+ km)
Ceiling: ceiling and visibility are OK
Clouds: unknown
Weather: no significant weather observed at this time

METAR text: LDZA 201400Z VRB03KT CAVOK 33/18 Q1017 NOSIG
Conditions at: LDZA (ZAGREB/PLESO , HR) observed 1400 UTC 20 August 2019
Temperature: 33.0°C (91°F)
Dewpoint: 18.0°C (64°F) [RH = 41%]
Pressure (altimeter): 30.03 inches Hg (1017.0 mb)
Winds: variable direction winds at 3 MPH (3 knots; 1.5 m/s)
Visibility: 6 or more miles (10+ km)
Ceiling: ceiling and visibility are OK
Clouds: unknown
Weather: no significant weather observed at this time

METAR text: LDZA 201330Z VRB02KT CAVOK 32/19 Q1017 NOSIG
Conditions at: LDZA (ZAGREB/PLESO , HR) observed 1330 UTC 20 August 2019
Temperature: 32.0°C (90°F)
Dewpoint: 19.0°C (66°F) [RH = 46%]
Pressure (altimeter): 30.03 inches Hg (1017.0 mb)
Winds: variable direction winds at 2 MPH (2 knots; 1.0 m/s)
Visibility: 6 or more miles (10+ km)
Ceiling: ceiling and visibility are OK
Clouds: unknown
Weather: no significant weather observed at this time

METAR text: LDZA 201300Z VRB04KT CAVOK 32/19 Q1017 NOSIG
Conditions at: LDZA (ZAGREB/PLESO , HR) observed 1300 UTC 20 August 2019
Temperature: 32.0°C (90°F)
Dewpoint: 19.0°C (66°F) [RH = 46%]
Pressure (altimeter): 30.03 inches Hg (1017.0 mb)
Winds: variable direction winds at 5 MPH (4 knots; 2.1 m/s)
Visibility: 6 or more miles (10+ km)
Ceiling: ceiling and visibility are OK
Clouds: unknown
Weather: no significant weather observed at this time

METAR text: LDZA 201230Z VRB02KT CAVOK 32/18 Q1018 NOSIG
Conditions at: LDZA (ZAGREB/PLESO , HR) observed 1230 UTC 20 August 2019
Temperature: 32.0°C (90°F)
Dewpoint: 18.0°C (64°F) [RH = 43%]
Pressure (altimeter): 30.06 inches Hg (1018.0 mb)
Winds: variable direction winds at 2 MPH (2 knots; 1.0 m/s)
Visibility: 6 or more miles (10+ km)
Ceiling: ceiling and visibility are OK
Clouds: unknown
Weather: no significant weather observed at this time

METAR text: LDZA 201200Z VRB02KT 9999 FEW043 31/18 Q1018 NOSIG
Conditions at: LDZA (ZAGREB/PLESO , HR) observed 1200 UTC 20 August 2019
Temperature: 31.0°C (88°F)
Dewpoint: 18.0°C (64°F) [RH = 46%]
Pressure (altimeter): 30.06 inches Hg (1018.0 mb)
Winds: variable direction winds at 2 MPH (2 knots; 1.0 m/s)
Visibility: 6 or more miles (10+ km)
Ceiling: at least 12,000 feet AGL
Clouds: few clouds at 4300 feet AGL
Weather: no significant weather observed at this time

METAR text: LDZA 201130Z VRB04KT 9999 FEW043 31/19 Q1018 NOSIG
Conditions at: LDZA (ZAGREB/PLESO , HR) observed 1130 UTC 20 August 2019
Temperature: 31.0°C (88°F)
Dewpoint: 19.0°C (66°F) [RH = 49%]
Pressure (altimeter): 30.06 inches Hg (1018.0 mb)
Winds: variable direction winds at 5 MPH (4 knots; 2.1 m/s)
Visibility: 6 or more miles (10+ km)
Ceiling: at least 12,000 feet AGL
Clouds: few clouds at 4300 feet AGL
Weather: no significant weather observed at this time

METAR text: LDZA 201100Z VRB03KT 9999 FEW043 30/19 Q1018 NOSIG
Conditions at: LDZA (ZAGREB/PLESO , HR) observed 1100 UTC 20 August 2019
Temperature: 30.0°C (86°F)
Dewpoint: 19.0°C (66°F) [RH = 52%]
Pressure (altimeter): 30.06 inches Hg (1018.0 mb)
Winds: variable direction winds at 3 MPH (3 knots; 1.5 m/s)
Visibility: 6 or more miles (10+ km)
Ceiling: at least 12,000 feet AGL
Clouds: few clouds at 4300 feet AGL
Weather: no significant weather observed at this time

METAR text: LDZA 201030Z VRB02KT CAVOK 30/19 Q1018 NOSIG
Conditions at: LDZA (ZAGREB/PLESO , HR) observed 1030 UTC 20 August 2019
Temperature: 30.0°C (86°F)
Dewpoint: 19.0°C (66°F) [RH = 52%]
Pressure (altimeter): 30.06 inches Hg (1018.0 mb)
Winds: variable direction winds at 2 MPH (2 knots; 1.0 m/s)
Visibility: 6 or more miles (10+ km)
Ceiling: ceiling and visibility are OK
Clouds: unknown
Weather: no significant weather observed at this time

METAR text: LDZA 201000Z VRB02KT CAVOK 29/20 Q1019 NOSIG
Conditions at: LDZA (ZAGREB/PLESO , HR) observed 1000 UTC 20 August 2019
Temperature: 29.0°C (84°F)
Dewpoint: 20.0°C (68°F) [RH = 58%]
Pressure (altimeter): 30.09 inches Hg (1019.0 mb)
Winds: variable direction winds at 2 MPH (2 knots; 1.0 m/s)
Visibility: 6 or more miles (10+ km)
Ceiling: ceiling and visibility are OK
Clouds: unknown
Weather: no significant weather observed at this time

METAR text: LDZA 200930Z VRB02KT CAVOK 29/19 Q1019 NOSIG
Conditions at: LDZA (ZAGREB/PLESO , HR) observed 0930 UTC 20 August 2019
Temperature: 29.0°C (84°F)
Dewpoint: 19.0°C (66°F) [RH = 55%]
Pressure (altimeter): 30.09 inches Hg (1019.0 mb)
Winds: variable direction winds at 2 MPH (2 knots; 1.0 m/s)
Visibility: 6 or more miles (10+ km)
Ceiling: ceiling and visibility are OK
Clouds: unknown
Weather: no significant weather observed at this time

METAR text: LDZA 200900Z VRB01KT CAVOK 28/19 Q1019 NOSIG
Conditions at: LDZA (ZAGREB/PLESO , HR) observed 0900 UTC 20 August 2019
Temperature: 28.0°C (82°F)
Dewpoint: 19.0°C (66°F) [RH = 58%]
Pressure (altimeter): 30.09 inches Hg (1019.0 mb)
Winds: variable direction winds at 1 MPH (1 knots; 0.5 m/s)
Visibility: 6 or more miles (10+ km)
Ceiling: ceiling and visibility are OK
Clouds: unknown
Weather: no significant weather observed at this time

METAR text: LDZA 200830Z VRB02KT CAVOK 27/19 Q1019 NOSIG
Conditions at: LDZA (ZAGREB/PLESO , HR) observed 0830 UTC 20 August 2019
Temperature: 27.0°C (81°F)
Dewpoint: 19.0°C (66°F) [RH = 62%]
Pressure (altimeter): 30.09 inches Hg (1019.0 mb)
Winds: variable direction winds at 2 MPH (2 knots; 1.0 m/s)
Visibility: 6 or more miles (10+ km)
Ceiling: ceiling and visibility are OK
Clouds: unknown
Weather: no significant weather observed at this time

METAR text: LDZA 200800Z 00000KT CAVOK 26/19 Q1019 NOSIG
Conditions at: LDZA (ZAGREB/PLESO , HR) observed 0800 UTC 20 August 2019
Temperature: 26.0°C (79°F)
Dewpoint: 19.0°C (66°F) [RH = 65%]
Pressure (altimeter): 30.09 inches Hg (1019.0 mb)
Winds: calm
Visibility: 6 or more miles (10+ km)
Ceiling: ceiling and visibility are OK
Clouds: unknown
Weather: no significant weather observed at this time

METAR text: LDZA 200730Z 00000KT CAVOK 25/19 Q1019 NOSIG
Conditions at: LDZA (ZAGREB/PLESO , HR) observed 0730 UTC 20 August 2019
Temperature: 25.0°C (77°F)
Dewpoint: 19.0°C (66°F) [RH = 69%]
Pressure (altimeter): 30.09 inches Hg (1019.0 mb)
Winds: calm
Visibility: 6 or more miles (10+ km)
Ceiling: ceiling and visibility are OK
Clouds: unknown
Weather: no significant weather observed at this time

METAR text: LDZA 200700Z 00000KT CAVOK 24/20 Q1019 NOSIG
Conditions at: LDZA (ZAGREB/PLESO , HR) observed 0700 UTC 20 August 2019
Temperature: 24.0°C (75°F)
Dewpoint: 20.0°C (68°F) [RH = 78%]
Pressure (altimeter): 30.09 inches Hg (1019.0 mb)
Winds: calm
Visibility: 6 or more miles (10+ km)
Ceiling: ceiling and visibility are OK
Clouds: unknown
Weather: no significant weather observed at this time

METAR text: LDZA 200630Z 00000KT CAVOK 22/20 Q1019 NOSIG
Conditions at: LDZA (ZAGREB/PLESO , HR) observed 0630 UTC 20 August 2019
Temperature: 22.0°C (72°F)
Dewpoint: 20.0°C (68°F) [RH = 88%]
Pressure (altimeter): 30.09 inches Hg (1019.0 mb)
Winds: calm
Visibility: 6 or more miles (10+ km)
Ceiling: ceiling and visibility are OK
Clouds: unknown
Weather: no significant weather observed at this time

METAR text: LDZA 200600Z 00000KT CAVOK 21/19 Q1018 NOSIG
Conditions at: LDZA (ZAGREB/PLESO , HR) observed 0600 UTC 20 August 2019
Temperature: 21.0°C (70°F)
Dewpoint: 19.0°C (66°F) [RH = 88%]
Pressure (altimeter): 30.06 inches Hg (1018.0 mb)
Winds: calm
Visibility: 6 or more miles (10+ km)
Ceiling: ceiling and visibility are OK
Clouds: unknown
Weather: no significant weather observed at this time

METAR text: LDZA 200530Z 00000KT CAVOK 20/18 Q1018 NOSIG
Conditions at: LDZA (ZAGREB/PLESO , HR) observed 0530 UTC 20 August 2019
Temperature: 20.0°C (68°F)
Dewpoint: 18.0°C (64°F) [RH = 88%]
Pressure (altimeter): 30.06 inches Hg (1018.0 mb)
Winds: calm
Visibility: 6 or more miles (10+ km)
Ceiling: ceiling and visibility are OK
Clouds: unknown
Weather: no significant weather observed at this time

METAR text: LDZA 200500Z 00000KT 9999 MIFG NSC 18/17 Q1018 NOSIG
Conditions at: LDZA (ZAGREB/PLESO , HR) observed 0500 UTC 20 August 2019
Temperature: 18.0°C (64°F)
Dewpoint: 17.0°C (63°F) [RH = 94%]
Pressure (altimeter): 30.06 inches Hg (1018.0 mb)
Winds: calm
Visibility: 6 or more miles (10+ km)
Ceiling: at least 12,000 feet AGL
Clouds: sky clear below 12,000 feet AGL
Weather: MIFG  (shallow fog)

METAR text: LDZA 200430Z 00000KT 9999 MIFG NSC 18/16 Q1018 NOSIG
Conditions at: LDZA (ZAGREB/PLESO , HR) observed 0430 UTC 20 August 2019
Temperature: 18.0°C (64°F)
Dewpoint: 16.0°C (61°F) [RH = 88%]
Pressure (altimeter): 30.06 inches Hg (1018.0 mb)
Winds: calm
Visibility: 6 or more miles (10+ km)
Ceiling: at least 12,000 feet AGL
Clouds: sky clear below 12,000 feet AGL
Weather: MIFG  (shallow fog)

METAR text: LDZA 200400Z 00000KT CAVOK 18/16 Q1018 NOSIG
Conditions at: LDZA (ZAGREB/PLESO , HR) observed 0400 UTC 20 August 2019
Temperature: 18.0°C (64°F)
Dewpoint: 16.0°C (61°F) [RH = 88%]
Pressure (altimeter): 30.06 inches Hg (1018.0 mb)
Winds: calm
Visibility: 6 or more miles (10+ km)
Ceiling: ceiling and visibility are OK
Clouds: unknown
Weather: no significant weather observed at this time

METAR text: LDZA 200330Z 00000KT CAVOK 18/17 Q1018 NOSIG
Conditions at: LDZA (ZAGREB/PLESO , HR) observed 0330 UTC 20 August 2019
Temperature: 18.0°C (64°F)
Dewpoint: 17.0°C (63°F) [RH = 94%]
Pressure (altimeter): 30.06 inches Hg (1018.0 mb)
Winds: calm
Visibility: 6 or more miles (10+ km)
Ceiling: ceiling and visibility are OK
Clouds: unknown
Weather: no significant weather observed at this time

METAR text: LDZA 200300Z 00000KT CAVOK 18/17 Q1018 NOSIG
Conditions at: LDZA (ZAGREB/PLESO , HR) observed 0300 UTC 20 August 2019
Temperature: 18.0°C (64°F)
Dewpoint: 17.0°C (63°F) [RH = 94%]
Pressure (altimeter): 30.06 inches Hg (1018.0 mb)
Winds: calm
Visibility: 6 or more miles (10+ km)
Ceiling: ceiling and visibility are OK
Clouds: unknown
Weather: no significant weather observed at this time

METAR text: LDZA 200230Z 00000KT CAVOK 19/18 Q1017 NOSIG
Conditions at: LDZA (ZAGREB/PLESO , HR) observed 0230 UTC 20 August 2019
Temperature: 19.0°C (66°F)
Dewpoint: 18.0°C (64°F) [RH = 94%]
Pressure (altimeter): 30.03 inches Hg (1017.0 mb)
Winds: calm
Visibility: 6 or more miles (10+ km)
Ceiling: ceiling and visibility are OK
Clouds: unknown
Weather: no significant weather observed at this time

METAR text: LDZA 200200Z 00000KT CAVOK 19/17 Q1017 NOSIG
Conditions at: LDZA (ZAGREB/PLESO , HR) observed 0200 UTC 20 August 2019
Temperature: 19.0°C (66°F)
Dewpoint: 17.0°C (63°F) [RH = 88%]
Pressure (altimeter): 30.03 inches Hg (1017.0 mb)
Winds: calm
Visibility: 6 or more miles (10+ km)
Ceiling: ceiling and visibility are OK
Clouds: unknown
Weather: no significant weather observed at this time

METAR text: LDZA 200130Z 00000KT CAVOK 19/17 Q1017 NOSIG
Conditions at: LDZA (ZAGREB/PLESO , HR) observed 0130 UTC 20 August 2019
Temperature: 19.0°C (66°F)
Dewpoint: 17.0°C (63°F) [RH = 88%]
Pressure (altimeter): 30.03 inches Hg (1017.0 mb)
Winds: calm
Visibility: 6 or more miles (10+ km)
Ceiling: ceiling and visibility are OK
Clouds: unknown
Weather: no significant weather observed at this time

METAR text: LDZA 200100Z 00000KT CAVOK 19/18 Q1017 NOSIG
Conditions at: LDZA (ZAGREB/PLESO , HR) observed 0100 UTC 20 August 2019
Temperature: 19.0°C (66°F)
Dewpoint: 18.0°C (64°F) [RH = 94%]
Pressure (altimeter): 30.03 inches Hg (1017.0 mb)
Winds: calm
Visibility: 6 or more miles (10+ km)
Ceiling: ceiling and visibility are OK
Clouds: unknown
Weather: no significant weather observed at this time

METAR text: LDZA 200030Z 00000KT CAVOK 20/18 Q1017 NOSIG
Conditions at: LDZA (ZAGREB/PLESO , HR) observed 0030 UTC 20 August 2019
Temperature: 20.0°C (68°F)
Dewpoint: 18.0°C (64°F) [RH = 88%]
Pressure (altimeter): 30.03 inches Hg (1017.0 mb)
Winds: calm
Visibility: 6 or more miles (10+ km)
Ceiling: ceiling and visibility are OK
Clouds: unknown
Weather: no significant weather observed at this time

METAR text: LDZA 200000Z 00000KT CAVOK 20/18 Q1017 NOSIG
Conditions at: LDZA (ZAGREB/PLESO , HR) observed 0000 UTC 20 August 2019
Temperature: 20.0°C (68°F)
Dewpoint: 18.0°C (64°F) [RH = 88%]
Pressure (altimeter): 30.03 inches Hg (1017.0 mb)
Winds: calm
Visibility: 6 or more miles (10+ km)
Ceiling: ceiling and visibility are OK
Clouds: unknown
Weather: no significant weather observed at this time

METAR text: LDZA 192330Z 00000KT CAVOK 20/18 Q1017 NOSIG
Conditions at: LDZA (ZAGREB/PLESO , HR) observed 2330 UTC 19 August 2019
Temperature: 20.0°C (68°F)
Dewpoint: 18.0°C (64°F) [RH = 88%]
Pressure (altimeter): 30.03 inches Hg (1017.0 mb)
Winds: calm
Visibility: 6 or more miles (10+ km)
Ceiling: ceiling and visibility are OK
Clouds: unknown
Weather: no significant weather observed at this time

METAR text: LDZA 192300Z 00000KT CAVOK 21/18 Q1017 NOSIG
Conditions at: LDZA (ZAGREB/PLESO , HR) observed 2300 UTC 19 August 2019
Temperature: 21.0°C (70°F)
Dewpoint: 18.0°C (64°F) [RH = 83%]
Pressure (altimeter): 30.03 inches Hg (1017.0 mb)
Winds: calm
Visibility: 6 or more miles (10+ km)
Ceiling: ceiling and visibility are OK
Clouds: unknown
Weather: no significant weather observed at this time

METAR text: LDZA 192230Z 00000KT CAVOK 21/18 Q1017 NOSIG
Conditions at: LDZA (ZAGREB/PLESO , HR) observed 2230 UTC 19 August 2019
Temperature: 21.0°C (70°F)
Dewpoint: 18.0°C (64°F) [RH = 83%]
Pressure (altimeter): 30.03 inches Hg (1017.0 mb)
Winds: calm
Visibility: 6 or more miles (10+ km)
Ceiling: ceiling and visibility are OK
Clouds: unknown
Weather: no significant weather observed at this time

METAR text: LDZA 192200Z 00000KT CAVOK 22/18 Q1017 NOSIG
Conditions at: LDZA (ZAGREB/PLESO , HR) observed 2200 UTC 19 August 2019
Temperature: 22.0°C (72°F)
Dewpoint: 18.0°C (64°F) [RH = 78%]
Pressure (altimeter): 30.03 inches Hg (1017.0 mb)
Winds: calm
Visibility: 6 or more miles (10+ km)
Ceiling: ceiling and visibility are OK
Clouds: unknown
Weather: no significant weather observed at this time

METAR text: LDZA 192130Z 03004KT CAVOK 24/19 Q1017 NOSIG
Conditions at: LDZA (ZAGREB/PLESO , HR) observed 2130 UTC 19 August 2019
Temperature: 24.0°C (75°F)
Dewpoint: 19.0°C (66°F) [RH = 74%]
Pressure (altimeter): 30.03 inches Hg (1017.0 mb)
Winds: from the NNE (30 degrees) at 5 MPH (4 knots; 2.1 m/s)
Visibility: 6 or more miles (10+ km)
Ceiling: ceiling and visibility are OK
Clouds: unknown
Weather: no significant weather observed at this time

METAR text: LDZA 192100Z 02003KT CAVOK 24/19 Q1017 NOSIG
Conditions at: LDZA (ZAGREB/PLESO , HR) observed 2100 UTC 19 August 2019
Temperature: 24.0°C (75°F)
Dewpoint: 19.0°C (66°F) [RH = 74%]
Pressure (altimeter): 30.03 inches Hg (1017.0 mb)
Winds: from the NNE (20 degrees) at 3 MPH (3 knots; 1.5 m/s)
Visibility: 6 or more miles (10+ km)
Ceiling: ceiling and visibility are OK
Clouds: unknown
Weather: no significant weather observed at this time

METAR text: LDZA 192030Z 03003KT 340V060 CAVOK 24/19 Q1017 NOSIG
Conditions at: LDZA (ZAGREB/PLESO , HR) observed 2030 UTC 19 August 2019
Temperature: 24.0°C (75°F)
Dewpoint: 19.0°C (66°F) [RH = 74%]
Pressure (altimeter): 30.03 inches Hg (1017.0 mb)
Winds: from the NNE (30 degrees) at 3 MPH (3 knots; 1.5 m/s)
Visibility: 6 or more miles (10+ km)
Ceiling: ceiling and visibility are OK
Clouds: unknown
Weather: no significant weather observed at this time

METAR text: LDZA 192000Z 00000KT CAVOK 24/19 Q1016 NOSIG
Conditions at: LDZA (ZAGREB/PLESO , HR) observed 2000 UTC 19 August 2019
Temperature: 24.0°C (75°F)
Dewpoint: 19.0°C (66°F) [RH = 74%]
Pressure (altimeter): 30.00 inches Hg (1016.0 mb)
Winds: calm
Visibility: 6 or more miles (10+ km)
Ceiling: ceiling and visibility are OK
Clouds: unknown
Weather: no significant weather observed at this time

METAR text: LDZA 191930Z 00000KT CAVOK 24/19 Q1016 NOSIG
Conditions at: LDZA (ZAGREB/PLESO , HR) observed 1930 UTC 19 August 2019
Temperature: 24.0°C (75°F)
Dewpoint: 19.0°C (66°F) [RH = 74%]
Pressure (altimeter): 30.00 inches Hg (1016.0 mb)
Winds: calm
Visibility: 6 or more miles (10+ km)
Ceiling: ceiling and visibility are OK
Clouds: unknown
Weather: no significant weather observed at this time

METAR text: LDZA 191900Z 00000KT CAVOK 25/19 Q1016 NOSIG
Conditions at: LDZA (ZAGREB/PLESO , HR) observed 1900 UTC 19 August 2019
Temperature: 25.0°C (77°F)
Dewpoint: 19.0°C (66°F) [RH = 69%]
Pressure (altimeter): 30.00 inches Hg (1016.0 mb)
Winds: calm
Visibility: 6 or more miles (10+ km)
Ceiling: ceiling and visibility are OK
Clouds: unknown
Weather: no significant weather observed at this time

METAR text: LDZA 191830Z 00000KT CAVOK 27/18 Q1016 NOSIG
Conditions at: LDZA (ZAGREB/PLESO , HR) observed 1830 UTC 19 August 2019
Temperature: 27.0°C (81°F)
Dewpoint: 18.0°C (64°F) [RH = 58%]
Pressure (altimeter): 30.00 inches Hg (1016.0 mb)
Winds: calm
Visibility: 6 or more miles (10+ km)
Ceiling: ceiling and visibility are OK
Clouds: unknown
Weather: no significant weather observed at this time

METAR text: LDZA 191800Z 00000KT CAVOK 28/18 Q1015 NOSIG
Conditions at: LDZA (ZAGREB/PLESO , HR) observed 1800 UTC 19 August 2019
Temperature: 28.0°C (82°F)
Dewpoint: 18.0°C (64°F) [RH = 55%]
Pressure (altimeter): 29.97 inches Hg (1015.0 mb)
Winds: calm
Visibility: 6 or more miles (10+ km)
Ceiling: ceiling and visibility are OK
Clouds: unknown
Weather: no significant weather observed at this time

METAR text: LDZA 191730Z 00000KT CAVOK 30/18 Q1015 NOSIG
Conditions at: LDZA (ZAGREB/PLESO , HR) observed 1730 UTC 19 August 2019
Temperature: 30.0°C (86°F)
Dewpoint: 18.0°C (64°F) [RH = 49%]
Pressure (altimeter): 29.97 inches Hg (1015.0 mb)
Winds: calm
Visibility: 6 or more miles (10+ km)
Ceiling: ceiling and visibility are OK
Clouds: unknown
Weather: no significant weather observed at this time

METAR text: LDZA 191700Z 00000KT CAVOK 32/18 Q1015 NOSIG
Conditions at: LDZA (ZAGREB/PLESO , HR) observed 1700 UTC 19 August 2019
Temperature: 32.0°C (90°F)
Dewpoint: 18.0°C (64°F) [RH = 43%]
Pressure (altimeter): 29.97 inches Hg (1015.0 mb)
Winds: calm
Visibility: 6 or more miles (10+ km)
Ceiling: ceiling and visibility are OK
Clouds: unknown
Weather: no significant weather observed at this time

METAR text: LDZA 191630Z VRB02KT CAVOK 32/17 Q1015 NOSIG
Conditions at: LDZA (ZAGREB/PLESO , HR) observed 1630 UTC 19 August 2019
Temperature: 32.0°C (90°F)
Dewpoint: 17.0°C (63°F) [RH = 41%]
Pressure (altimeter): 29.97 inches Hg (1015.0 mb)
Winds: variable direction winds at 2 MPH (2 knots; 1.0 m/s)
Visibility: 6 or more miles (10+ km)
Ceiling: ceiling and visibility are OK
Clouds: unknown
Weather: no significant weather observed at this time

METAR text: LDZA 191600Z VRB02KT CAVOK 32/17 Q1015 NOSIG
Conditions at: LDZA (ZAGREB/PLESO , HR) observed 1600 UTC 19 August 2019
Temperature: 32.0°C (90°F)
Dewpoint: 17.0°C (63°F) [RH = 41%]
Pressure (altimeter): 29.97 inches Hg (1015.0 mb)
Winds: variable direction winds at 2 MPH (2 knots; 1.0 m/s)
Visibility: 6 or more miles (10+ km)
Ceiling: ceiling and visibility are OK
Clouds: unknown
Weather: no significant weather observed at this time

METAR text: LDZA 191530Z VRB01KT CAVOK 33/16 Q1015 NOSIG
Conditions at: LDZA (ZAGREB/PLESO , HR) observed 1530 UTC 19 August 2019
Temperature: 33.0°C (91°F)
Dewpoint: 16.0°C (61°F) [RH = 36%]
Pressure (altimeter): 29.97 inches Hg (1015.0 mb)
Winds: variable direction winds at 1 MPH (1 knots; 0.5 m/s)
Visibility: 6 or more miles (10+ km)
Ceiling: ceiling and visibility are OK
Clouds: unknown
Weather: no significant weather observed at this time

METAR text: LDZA 191500Z VRB03KT CAVOK 33/17 Q1015 NOSIG
Conditions at: LDZA (ZAGREB/PLESO , HR) observed 1500 UTC 19 August 2019
Temperature: 33.0°C (91°F)
Dewpoint: 17.0°C (63°F) [RH = 39%]
Pressure (altimeter): 29.97 inches Hg (1015.0 mb)
Winds: variable direction winds at 3 MPH (3 knots; 1.5 m/s)
Visibility: 6 or more miles (10+ km)
Ceiling: ceiling and visibility are OK
Clouds: unknown
Weather: no significant weather observed at this time

METAR text: LDZA 191430Z VRB02KT CAVOK 33/17 Q1016 NOSIG
Conditions at: LDZA (ZAGREB/PLESO , HR) observed 1430 UTC 19 August 2019
Temperature: 33.0°C (91°F)
Dewpoint: 17.0°C (63°F) [RH = 39%]
Pressure (altimeter): 30.00 inches Hg (1016.0 mb)
Winds: variable direction winds at 2 MPH (2 knots; 1.0 m/s)
Visibility: 6 or more miles (10+ km)
Ceiling: ceiling and visibility are OK
Clouds: unknown
Weather: no significant weather observed at this time

METAR text: LDZA 191400Z 27004KT 170V330 CAVOK 32/17 Q1016 NOSIG
Conditions at: LDZA (ZAGREB/PLESO , HR) observed 1400 UTC 19 August 2019
Temperature: 32.0°C (90°F)
Dewpoint: 17.0°C (63°F) [RH = 41%]
Pressure (altimeter): 30.00 inches Hg (1016.0 mb)
Winds: from the W (270 degrees) at 5 MPH (4 knots; 2.1 m/s)
Visibility: 6 or more miles (10+ km)
Ceiling: ceiling and visibility are OK
Clouds: unknown
Weather: no significant weather observed at this time

METAR text: LDZA 191330Z VRB02KT CAVOK 32/17 Q1016 NOSIG
Conditions at: LDZA (ZAGREB/PLESO , HR) observed 1330 UTC 19 August 2019
Temperature: 32.0°C (90°F)
Dewpoint: 17.0°C (63°F) [RH = 41%]
Pressure (altimeter): 30.00 inches Hg (1016.0 mb)
Winds: variable direction winds at 2 MPH (2 knots; 1.0 m/s)
Visibility: 6 or more miles (10+ km)
Ceiling: ceiling and visibility are OK
Clouds: unknown
Weather: no significant weather observed at this time

METAR text: LDZA 191300Z VRB02KT CAVOK 32/16 Q1016 NOSIG
Conditions at: LDZA (ZAGREB/PLESO , HR) observed 1300 UTC 19 August 2019
Temperature: 32.0°C (90°F)
Dewpoint: 16.0°C (61°F) [RH = 38%]
Pressure (altimeter): 30.00 inches Hg (1016.0 mb)
Winds: variable direction winds at 2 MPH (2 knots; 1.0 m/s)
Visibility: 6 or more miles (10+ km)
Ceiling: ceiling and visibility are OK
Clouds: unknown
Weather: no significant weather observed at this time

METAR text: LDZA 191230Z 27004KT 190V360 CAVOK 31/16 Q1016 NOSIG
Conditions at: LDZA (ZAGREB/PLESO , HR) observed 1230 UTC 19 August 2019
Temperature: 31.0°C (88°F)
Dewpoint: 16.0°C (61°F) [RH = 40%]
Pressure (altimeter): 30.00 inches Hg (1016.0 mb)
Winds: from the W (270 degrees) at 5 MPH (4 knots; 2.1 m/s)
Visibility: 6 or more miles (10+ km)
Ceiling: ceiling and visibility are OK
Clouds: unknown
Weather: no significant weather observed at this time

METAR text: LDZA 191200Z VRB05KT CAVOK 31/16 Q1016 NOSIG
Conditions at: LDZA (ZAGREB/PLESO , HR) observed 1200 UTC 19 August 2019
Temperature: 31.0°C (88°F)
Dewpoint: 16.0°C (61°F) [RH = 40%]
Pressure (altimeter): 30.00 inches Hg (1016.0 mb)
Winds: variable direction winds at 6 MPH (5 knots; 2.6 m/s)
Visibility: 6 or more miles (10+ km)
Ceiling: ceiling and visibility are OK
Clouds: unknown
Weather: no significant weather observed at this time

METAR text: LDZA 191130Z 27005KT 230V010 CAVOK 31/16 Q1016 NOSIG
Conditions at: LDZA (ZAGREB/PLESO , HR) observed 1130 UTC 19 August 2019
Temperature: 31.0°C (88°F)
Dewpoint: 16.0°C (61°F) [RH = 40%]
Pressure (altimeter): 30.00 inches Hg (1016.0 mb)
Winds: from the W (270 degrees) at 6 MPH (5 knots; 2.6 m/s)
Visibility: 6 or more miles (10+ km)
Ceiling: ceiling and visibility are OK
Clouds: unknown
Weather: no significant weather observed at this time

METAR text: LDZA 191100Z 27005KT 190V350 CAVOK 30/17 Q1016 NOSIG
Conditions at: LDZA (ZAGREB/PLESO , HR) observed 1100 UTC 19 August 2019
Temperature: 30.0°C (86°F)
Dewpoint: 17.0°C (63°F) [RH = 46%]
Pressure (altimeter): 30.00 inches Hg (1016.0 mb)
Winds: from the W (270 degrees) at 6 MPH (5 knots; 2.6 m/s)
Visibility: 6 or more miles (10+ km)
Ceiling: ceiling and visibility are OK
Clouds: unknown
Weather: no significant weather observed at this time

METAR text: LDZA 191030Z 26005KT 210V330 CAVOK 29/17 Q1016 NOSIG
Conditions at: LDZA (ZAGREB/PLESO , HR) observed 1030 UTC 19 August 2019
Temperature: 29.0°C (84°F)
Dewpoint: 17.0°C (63°F) [RH = 48%]
Pressure (altimeter): 30.00 inches Hg (1016.0 mb)
Winds: from the W (260 degrees) at 6 MPH (5 knots; 2.6 m/s)
Visibility: 6 or more miles (10+ km)
Ceiling: ceiling and visibility are OK
Clouds: unknown
Weather: no significant weather observed at this time

METAR text: LDZA 191000Z VRB06KT CAVOK 29/17 Q1016 NOSIG
Conditions at: LDZA (ZAGREB/PLESO , HR) observed 1000 UTC 19 August 2019
Temperature: 29.0°C (84°F)
Dewpoint: 17.0°C (63°F) [RH = 48%]
Pressure (altimeter): 30.00 inches Hg (1016.0 mb)
Winds: variable direction winds at 7 MPH (6 knots; 3.1 m/s)
Visibility: 6 or more miles (10+ km)
Ceiling: ceiling and visibility are OK
Clouds: unknown
Weather: no significant weather observed at this time

METAR text: LDZA 190930Z 21006KT 110V250 CAVOK 29/16 Q1016 NOSIG
Conditions at: LDZA (ZAGREB/PLESO , HR) observed 0930 UTC 19 August 2019
Temperature: 29.0°C (84°F)
Dewpoint: 16.0°C (61°F) [RH = 45%]
Pressure (altimeter): 30.00 inches Hg (1016.0 mb)
Winds: from the SSW (210 degrees) at 7 MPH (6 knots; 3.1 m/s)
Visibility: 6 or more miles (10+ km)
Ceiling: ceiling and visibility are OK
Clouds: unknown
Weather: no significant weather observed at this time

METAR text: LDZA 190900Z 24006KT 170V300 CAVOK 28/15 Q1016 NOSIG
Conditions at: LDZA (ZAGREB/PLESO , HR) observed 0900 UTC 19 August 2019
Temperature: 28.0°C (82°F)
Dewpoint: 15.0°C (59°F) [RH = 45%]
Pressure (altimeter): 30.00 inches Hg (1016.0 mb)
Winds: from the WSW (240 degrees) at 7 MPH (6 knots; 3.1 m/s)
Visibility: 6 or more miles (10+ km)
Ceiling: ceiling and visibility are OK
Clouds: unknown
Weather: no significant weather observed at this time

METAR text: LDZA 190830Z 24004KT 200V280 CAVOK 27/15 Q1016 NOSIG
Conditions at: LDZA (ZAGREB/PLESO , HR) observed 0830 UTC 19 August 2019
Temperature: 27.0°C (81°F)
Dewpoint: 15.0°C (59°F) [RH = 48%]
Pressure (altimeter): 30.00 inches Hg (1016.0 mb)
Winds: from the WSW (240 degrees) at 5 MPH (4 knots; 2.1 m/s)
Visibility: 6 or more miles (10+ km)
Ceiling: ceiling and visibility are OK
Clouds: unknown
Weather: no significant weather observed at this time

Forecast for: LDZA (ZAGREB/PLESO , HR)
Text: TAF LDZA 201725Z 2018/2118 05004KT CAVOK TX29/2018Z TN18/2103Z
Forecast period: 1800 UTC 20 August 2019 to 0600 UTC 21 August 2019
Forecast type: FROM: standard forecast or significant change
Winds: from the NE (50 degrees) at 5 MPH (4 knots; 2.1 m/s)
Visibility: 6 or more miles 10+ km)
Ceiling: unknown
Clouds: missing
Weather: no significant weather forecast for this period
Text: BECMG 2106/2108 04012KT
Forecast period: 0600 to 1600 UTC 21 August 2019
Forecast type: BECOMING: Conditions expected to become as follows by 0800 UTC 21 August 2019
Winds: from the NE (40 degrees) at 14 MPH (12 knots; 6.2 m/s)
Visibility: 6 or more miles 10+ km)
Ceiling: unknown
Clouds: missing
Weather: no significant weather forecast for this period
Text: BECMG 2116/2118 VRB02KT
Forecast period: 1600 to 1800 UTC 21 August 2019
Forecast type: BECOMING: Conditions expected to become as follows by 1800 UTC 21 August 2019
Winds: variable direction winds at 2 MPH (2 knots; 1.0 m/s)
Visibility: 6 or more miles 10+ km)
Ceiling: unknown
Clouds: missing
Weather: no significant weather forecast for this period